Aviation Digital Data Service (ADDS)

Output produced by METARs form (0204 UTC 26 April 2017)
found at http://www.aviationweather.gov/adds/metars/
 
KJFK 260149Z 2602/2706 05015G24KT 3SM -RA BR OVC006 
     TEMPO 2602/2603 2SM +RA BR OVC005 
     FM260300 05012G18KT 3SM -RA BR OVC005 
     TEMPO 2603/2607 2SM -RA BR 
     FM260700 05009KT 1SM -RA BR OVC004 
     FM261500 04008KT 3SM BR VCSH OVC007 
     FM261900 03008KT 6SM BR OVC008 
     FM270000 VRB03KT 3/4SM BR OVC003